Time;durP1;ratioP1;P1;durP2;ratioP2;P2;SDS_P1;SDS_P2;PMS_P1;PMS_P2;Temp;Humidity;BMP_temperature;BMP_pressure;BME280_temperature;BME280_humidity;BME280_pressure;Samples;Min_cycle;Max_cycle;Signal;HPM_P1;HPM_P2
2022/06/16 00:00:03;;;;;;;3.85;2.38;;;18.60;79.00;;;;;;5001374;28;20033;-77
2022/06/16 00:02:28;;;;;;;3.13;1.80;;;18.60;79.20;;;;;;5009192;28;20038;-77
2022/06/16 00:04:54;;;;;;;3.85;1.95;;;18.50;79.70;;;;;;5007663;28;20161;-78
2022/06/16 00:07:19;;;;;;;3.25;2.03;;;18.50;80.30;;;;;;5024356;28;20034;-78
2022/06/16 00:09:45;;;;;;;3.42;2.15;;;18.50;80.30;;;;;;5008681;28;20412;-78
2022/06/16 00:12:10;;;;;;;3.05;1.92;;;18.50;80.40;;;;;;5009275;28;20102;-78
2022/06/16 00:14:36;;;;;;;3.22;1.90;;;18.40;80.30;;;;;;5010330;28;20447;-78
2022/06/16 00:17:01;;;;;;;3.92;2.05;;;18.40;80.40;;;;;;5009532;28;20030;-78
2022/06/16 00:19:27;;;;;;;4.72;2.10;;;18.40;80.50;;;;;;5010217;28;20030;-78
2022/06/16 00:21:52;;;;;;;5.43;2.28;;;18.40;80.80;;;;;;5009882;28;20044;-77
2022/06/16 00:24:18;;;;;;;4.07;2.40;;;18.30;80.80;;;;;;5009089;28;20030;-78
2022/06/16 00:26:43;;;;;;;3.00;1.98;;;18.30;81.50;;;;;;5008316;28;20032;-78
2022/06/16 00:29:09;;;;;;;4.78;2.42;;;18.20;81.60;;;;;;5007561;28;20121;-78
2022/06/16 00:31:35;;;;;;;5.10;2.22;;;18.20;81.90;;;;;;5006407;28;20034;-78
2022/06/16 00:34:00;;;;;;;6.05;2.80;;;18.20;82.20;;;;;;5007385;28;20026;-77
2022/06/16 00:36:26;;;;;;;3.55;2.50;;;18.10;82.60;;;;;;5006962;28;20038;-78
2022/06/16 00:38:52;;;;;;;6.95;2.42;;;18.20;83.00;;;;;;5007808;28;20386;-78
2022/06/16 00:41:18;;;;;;;6.75;2.72;;;18.10;83.90;;;;;;5007108;28;20096;-78
2022/06/16 00:43:44;;;;;;;4.20;2.40;;;18.10;83.50;;;;;;5008211;28;20029;-77
2022/06/16 00:46:14;;;;;;;5.20;3.10;;;18.10;83.20;;;;;;5008635;28;20033;-78
2022/06/16 00:48:55;;;;;;;7.57;2.92;;;18.00;83.20;;;;;;5009966;28;20038;-77
2022/06/16 00:51:26;;;;;;;3.38;2.58;;;18.00;83.20;;;;;;5008373;28;20100;-77
2022/06/16 00:53:56;;;;;;;7.03;2.67;;;17.90;83.30;;;;;;5007492;28;20025;-77
2022/06/16 00:56:22;;;;;;;5.18;2.40;;;17.90;83.80;;;;;;5007992;28;20084;-77
2022/06/16 00:58:53;;;;;;;4.72;2.25;;;17.90;84.00;;;;;;5005411;28;20022;-77
2022/06/16 01:01:21;;;;;;;3.40;2.85;;;17.90;84.10;;;;;;5008102;28;20494;-77
2022/06/16 01:06:32;;;;;;;5.45;2.50;;;17.80;84.70;;;;;;5006406;28;20097;-77
2022/06/16 01:09:11;;;;;;;4.25;2.60;;;17.80;85.20;;;;;;5010152;28;20112;-77
2022/06/16 01:15:00;;;;;;;4.90;2.35;;;17.80;85.60;;;;;;5004865;28;20037;-77
2022/06/16 01:18:11;;;;;;;4.37;2.30;;;17.70;85.70;;;;;;5026429;28;20057;-77
2022/06/16 01:20:55;;;;;;;3.20;1.92;;;17.70;86.20;;;;;;5009573;28;20049;-78
2022/06/16 01:23:53;;;;;;;2.97;2.17;;;17.70;86.50;;;;;;5007935;28;20029;-77
2022/06/16 01:26:43;;;;;;;4.07;2.28;;;17.60;86.60;;;;;;5011203;28;20034;-77
2022/06/16 01:29:20;;;;;;;4.15;2.50;;;17.60;87.30;;;;;;5011310;28;20034;-78
2022/06/16 01:32:12;;;;;;;5.68;2.72;;;17.60;87.70;;;;;;5009350;28;20037;-78
2022/06/16 01:34:59;;;;;;;3.55;2.42;;;17.50;87.70;;;;;;5008002;28;20052;-77
2022/06/16 01:37:34;;;;;;;5.22;2.78;;;17.50;88.00;;;;;;5003263;28;20037;-77
2022/06/16 01:40:15;;;;;;;4.32;2.50;;;17.50;88.00;;;;;;5010609;28;20066;-79
2022/06/16 01:43:12;;;;;;;8.25;2.85;;;17.50;88.00;;;;;;5004621;28;20045;-77
2022/06/16 01:45:56;;;;;;;3.88;2.13;;;17.50;87.80;;;;;;5009283;28;20030;-79
2022/06/16 01:48:23;;;;;;;3.90;2.13;;;17.50;87.80;;;;;;5011901;28;20025;-77
2022/06/16 01:51:16;;;;;;;2.53;1.83;;;17.50;88.00;;;;;;5011781;28;20034;-77
2022/06/16 01:53:48;;;;;;;4.18;1.88;;;17.50;88.10;;;;;;5007231;28;20070;-77
2022/06/16 01:56:20;;;;;;;4.47;2.47;;;17.50;88.50;;;;;;5025059;28;20026;-77
2022/06/16 01:58:52;;;;;;;4.57;2.42;;;17.50;88.40;;;;;;5013820;28;20108;-77
2022/06/16 02:01:21;;;;;;;3.65;2.72;;;17.50;88.40;;;;;;5019996;28;20101;-77
2022/06/16 02:03:54;;;;;;;2.42;2.17;;;17.50;88.50;;;;;;5028750;28;20097;-79
2022/06/16 02:06:24;;;;;;;2.90;2.05;;;17.50;88.60;;;;;;5010657;28;20040;-77
2022/06/16 02:08:59;;;;;;;3.22;2.42;;;17.50;88.70;;;;;;5012448;28;20034;-79
2022/06/16 02:11:28;;;;;;;3.88;2.40;;;17.60;89.10;;;;;;5011374;28;20475;-79
2022/06/16 02:14:08;;;;;;;5.38;2.05;;;17.50;89.50;;;;;;5017789;28;20029;-76
2022/06/16 02:16:36;;;;;;;5.53;1.83;;;17.50;89.90;;;;;;5010379;28;20064;-79
2022/06/16 02:19:07;;;;;;;3.08;1.92;;;17.50;90.00;;;;;;5011048;28;20542;-79
2022/06/16 02:21:35;;;;;;;3.20;1.67;;;17.50;89.50;;;;;;5011041;28;20053;-79
2022/06/16 02:24:03;;;;;;;3.90;2.40;;;17.50;89.30;;;;;;5011280;28;20056;-79
2022/06/16 02:26:29;;;;;;;3.65;1.77;;;17.50;89.20;;;;;;5007814;28;20109;-79
2022/06/16 02:28:57;;;;;;;3.35;2.10;;;17.50;89.30;;;;;;5010902;28;20689;-79
2022/06/16 02:31:41;;;;;;;3.08;1.88;;;17.50;89.10;;;;;;5007632;28;20068;-80
2022/06/16 02:34:31;;;;;;;4.13;2.00;;;17.60;89.10;;;;;;5004327;28;20029;-77
2022/06/16 02:37:43;;;;;;;3.85;2.20;;;17.60;89.00;;;;;;5003971;28;20536;-78
2022/06/16 02:40:14;;;;;;;2.90;1.73;;;17.50;89.40;;;;;;5008036;28;20034;-77
2022/06/16 02:43:05;;;;;;;3.88;1.88;;;17.60;89.10;;;;;;5010396;28;20095;-78
2022/06/16 02:45:43;;;;;;;4.03;2.20;;;17.60;89.10;;;;;;5008737;28;20214;-77
2022/06/16 02:48:23;;;;;;;3.08;2.05;;;17.60;89.50;;;;;;5010939;28;20041;-77
2022/06/16 02:50:59;;;;;;;4.30;2.00;;;17.50;89.60;;;;;;5007963;28;20057;-78
2022/06/16 02:53:43;;;;;;;7.80;2.72;;;17.50;89.80;;;;;;5009633;28;20026;-78
2022/06/16 02:56:36;;;;;;;3.47;1.88;;;17.50;89.40;;;;;;5009932;28;20045;-77
2022/06/16 02:59:08;;;;;;;2.88;1.92;;;17.40;89.30;;;;;;5009216;28;20390;-77
2022/06/16 03:01:34;;;;;;;5.55;2.10;;;17.40;89.50;;;;;;5019640;28;20033;-77
2022/06/16 03:04:14;;;;;;;7.95;2.30;;;17.30;89.50;;;;;;5004621;28;20057;-77
2022/06/16 03:06:40;;;;;;;3.35;2.17;;;17.30;90.20;;;;;;5005105;28;20040;-77
2022/06/16 03:09:06;;;;;;;3.30;2.45;;;17.20;90.20;;;;;;5005421;28;20029;-77
2022/06/16 03:11:33;;;;;;;3.80;2.28;;;17.20;90.50;;;;;;5009586;28;20083;-78
2022/06/16 03:13:59;;;;;;;2.63;2.35;;;17.20;90.70;;;;;;5009012;28;20065;-77
2022/06/16 03:16:25;;;;;;;3.50;1.85;;;17.20;91.00;;;;;;5005832;28;20056;-77
2022/06/16 03:18:51;;;;;;;4.85;2.28;;;17.20;90.60;;;;;;5008995;28;20026;-78
2022/06/16 03:21:16;;;;;;;4.93;2.40;;;17.20;90.60;;;;;;5009021;28;20041;-77
2022/06/16 03:23:42;;;;;;;6.40;2.17;;;17.30;90.40;;;;;;5006853;28;20088;-77
2022/06/16 03:26:08;;;;;;;4.47;2.10;;;17.30;89.80;;;;;;5008389;28;20103;-77
2022/06/16 03:28:33;;;;;;;8.07;2.47;;;17.30;88.90;;;;;;5007412;28;20034;-77
2022/06/16 03:30:59;;;;;;;2.72;1.80;;;17.30;88.50;;;;;;5009650;28;20037;-77
2022/06/16 03:33:25;;;;;;;4.10;1.90;;;17.20;87.80;;;;;;5023909;28;20057;-77
2022/06/16 03:35:50;;;;;;;4.55;2.17;;;17.30;87.80;;;;;;5018829;28;20038;-77
2022/06/16 03:40:52;;;;;;;6.03;2.40;;;17.30;87.30;;;;;;5006913;28;20085;-78
2022/06/16 03:43:18;;;;;;;5.60;2.60;;;17.40;87.20;;;;;;5008446;28;20455;-78
2022/06/16 03:45:43;;;;;;;4.57;2.30;;;17.40;87.60;;;;;;5007971;28;20041;-78
2022/06/16 03:48:09;;;;;;;3.75;2.25;;;17.40;87.50;;;;;;5008540;28;20117;-77
2022/06/16 03:50:35;;;;;;;3.40;2.20;;;17.30;88.20;;;;;;5009873;28;20087;-77
2022/06/16 03:53:00;;;;;;;3.97;2.35;;;17.30;88.40;;;;;;5009200;28;20120;-77
2022/06/16 03:55:26;;;;;;;5.13;1.85;;;17.30;88.50;;;;;;5005886;28;20124;-77
2022/06/16 03:57:52;;;;;;;3.92;2.25;;;17.20;88.40;;;;;;5009947;28;20022;-77
2022/06/16 04:00:20;;;;;;;8.93;2.20;;;17.20;88.70;;;;;;5004860;28;20133;-77
2022/06/16 04:02:47;;;;;;;3.88;2.25;;;17.10;89.00;;;;;;5000362;28;20049;-77
2022/06/16 04:05:12;;;;;;;4.35;2.10;;;17.10;89.20;;;;;;5008499;28;20034;-77
2022/06/16 04:07:38;;;;;;;3.80;2.13;;;17.10;89.40;;;;;;5009526;28;20057;-77
2022/06/16 04:10:06;;;;;;;4.60;1.92;;;17.20;89.10;;;;;;5010241;28;20025;-77
2022/06/16 04:12:32;;;;;;;4.28;2.22;;;17.20;89.00;;;;;;5009946;28;20116;-77
2022/06/16 04:14:58;;;;;;;3.83;2.22;;;17.20;88.90;;;;;;5009066;28;20041;-76
2022/06/16 04:17:24;;;;;;;3.88;1.90;;;17.20;88.70;;;;;;5009277;28;20038;-77
2022/06/16 04:22:33;;;;;;;4.10;2.05;;;17.30;88.70;;;;;;5009616;28;20091;-77
2022/06/16 04:24:59;;;;;;;5.05;2.25;;;17.30;88.50;;;;;;5022963;28;20109;-77
2022/06/16 04:27:24;;;;;;;4.93;2.13;;;17.20;89.50;;;;;;5009928;28;20069;-77
2022/06/16 04:29:51;;;;;;;3.83;2.65;;;17.30;89.20;;;;;;5008801;28;20062;-77
2022/06/16 04:32:17;;;;;;;6.80;2.45;;;17.30;89.10;;;;;;5008074;28;20037;-77
2022/06/16 04:34:43;;;;;;;6.70;2.50;;;17.40;89.40;;;;;;5005541;28;20091;-76
2022/06/16 04:37:10;;;;;;;6.55;2.17;;;17.50;89.30;;;;;;5000016;28;20030;-77
2022/06/16 04:39:35;;;;;;;6.88;2.55;;;17.50;89.10;;;;;;5004365;28;20149;-76
2022/06/16 04:42:01;;;;;;;3.97;2.22;;;17.60;89.50;;;;;;5009269;28;20062;-78
2022/06/16 04:44:26;;;;;;;5.28;2.20;;;17.60;89.70;;;;;;5009522;28;20046;-79
2022/06/16 04:46:52;;;;;;;5.82;2.80;;;17.70;90.20;;;;;;5009779;28;20030;-79
2022/06/16 04:49:17;;;;;;;4.53;2.30;;;17.70;90.40;;;;;;5011113;28;20083;-78
2022/06/16 04:51:43;;;;;;;3.85;2.83;;;17.60;90.40;;;;;;5009447;28;20497;-79
2022/06/16 04:54:09;;;;;;;7.10;2.70;;;17.60;90.50;;;;;;5011765;28;20049;-78
2022/06/16 04:56:34;;;;;;;3.30;2.10;;;17.70;90.50;;;;;;5009971;28;20044;-78
2022/06/16 04:59:00;;;;;;;10.43;2.60;;;17.70;90.30;;;;;;5022761;28;20588;-79
2022/06/16 05:01:25;;;;;;;5.82;2.05;;;17.70;90.50;;;;;;5008535;28;20025;-78
2022/06/16 05:03:51;;;;;;;7.43;2.53;;;17.70;90.20;;;;;;5011716;28;20034;-78
2022/06/16 05:06:17;;;;;;;5.40;2.70;;;17.80;90.40;;;;;;5006518;28;20427;-79
2022/06/16 05:08:42;;;;;;;6.93;2.50;;;17.80;90.10;;;;;;4992086;28;20054;-78
2022/06/16 05:11:08;;;;;;;4.00;2.55;;;17.80;90.20;;;;;;5010594;28;20049;-79
2022/06/16 05:13:34;;;;;;;9.88;2.65;;;17.80;90.10;;;;;;5012258;28;20084;-79
2022/06/16 05:16:00;;;;;;;3.70;2.05;;;17.90;90.20;;;;;;5011538;28;20034;-78
2022/06/16 05:18:25;;;;;;;4.43;2.35;;;17.90;90.30;;;;;;5012046;28;20033;-78
2022/06/16 05:20:51;;;;;;;4.03;2.35;;;18.00;90.00;;;;;;5012070;28;20072;-78
2022/06/16 05:23:16;;;;;;;3.60;2.08;;;17.90;90.30;;;;;;5029129;28;20114;-78
2022/06/16 05:25:42;;;;;;;5.47;2.22;;;17.80;90.40;;;;;;5010656;28;20033;-79
2022/06/16 05:28:09;;;;;;;4.93;2.10;;;17.90;90.20;;;;;;5012354;28;20439;-79
2022/06/16 05:30:35;;;;;;;5.07;2.38;;;18.00;90.20;;;;;;5011866;28;20034;-79
2022/06/16 05:33:01;;;;;;;3.08;1.77;;;18.00;90.20;;;;;;5009553;28;20026;-78
2022/06/16 05:35:27;;;;;;;2.90;2.40;;;18.00;90.10;;;;;;5009764;28;20385;-83
2022/06/16 05:37:53;;;;;;;5.43;2.70;;;18.00;90.20;;;;;;5023019;28;20080;-78
2022/06/16 05:40:18;;;;;;;5.18;2.25;;;18.00;90.30;;;;;;5009005;28;20406;-78
2022/06/16 05:42:44;;;;;;;4.93;2.30;;;18.00;90.40;;;;;;5009171;28;20042;-77
2022/06/16 05:45:10;;;;;;;3.80;2.05;;;18.00;90.30;;;;;;5009493;28;20034;-78
2022/06/16 05:47:37;;;;;;;4.25;2.40;;;18.00;90.40;;;;;;5009760;28;20053;-78
2022/06/16 05:50:03;;;;;;;4.00;2.33;;;18.00;90.30;;;;;;5009914;28;20041;-78
2022/06/16 05:52:29;;;;;;;3.47;2.40;;;18.10;90.40;;;;;;5010822;28;20033;-78
2022/06/16 05:54:55;;;;;;;6.32;2.40;;;18.30;90.10;;;;;;5011879;28;20044;-78
2022/06/16 05:57:20;;;;;;;8.77;2.08;;;18.40;90.40;;;;;;5012171;28;20498;-79
2022/06/16 05:59:46;;;;;;;5.88;2.53;;;18.50;90.00;;;;;;5011057;28;20057;-78
2022/06/16 06:02:16;;;;;;;3.30;2.08;;;18.50;89.70;;;;;;5010224;28;20403;-78
2022/06/16 06:04:42;;;;;;;3.03;2.15;;;18.70;89.40;;;;;;5012351;28;20079;-78
2022/06/16 06:07:08;;;;;;;6.18;2.70;;;18.70;88.90;;;;;;5011765;28;20441;-78
2022/06/16 06:18:15;;;;;;;7.15;3.08;;;18.60;90.50;;;;;;5012321;28;20052;-78
2022/06/16 06:20:41;;;;;;;4.43;2.70;;;18.50;90.60;;;;;;5011854;28;20493;-78
2022/06/16 06:23:07;;;;;;;6.68;2.40;;;18.40;90.80;;;;;;5012238;28;20113;-78
2022/06/16 06:25:33;;;;;;;4.57;2.40;;;18.30;90.40;;;;;;5011454;28;20212;-78
2022/06/16 06:27:58;;;;;;;3.75;2.33;;;18.20;90.70;;;;;;5011714;28;20045;-78
2022/06/16 06:30:28;;;;;;;4.90;2.78;;;18.10;91.20;;;;;;5012092;28;20030;-78
2022/06/16 06:32:54;;;;;;;15.95;3.10;;;18.10;92.10;;;;;;5011655;28;20522;-78
2022/06/16 06:35:20;;;;;;;5.53;2.63;;;18.00;92.00;;;;;;5010421;28;20117;-78
2022/06/16 06:37:47;;;;;;;7.53;3.15;;;18.00;92.20;;;;;;5011772;28;20053;-78
2022/06/16 06:40:37;;;;;;;9.57;2.92;;;18.10;92.20;;;;;;5012018;28;20474;-78
2022/06/16 06:43:03;;;;;;;6.43;2.53;;;18.00;92.60;;;;;;5010782;28;20129;-78
2022/06/16 06:45:29;;;;;;;5.78;2.92;;;18.00;92.90;;;;;;5011215;28;20457;-79
2022/06/16 06:47:55;;;;;;;4.32;3.45;;;18.00;93.40;;;;;;5011651;28;20034;-79
2022/06/16 06:50:23;;;;;;;6.45;3.42;;;18.00;93.70;;;;;;5011597;28;20117;-78
2022/06/16 06:52:50;;;;;;;11.80;3.20;;;18.10;94.00;;;;;;5026484;28;20044;-78
2022/06/16 06:55:16;;;;;;;4.68;2.60;;;18.20;94.60;;;;;;5026082;28;20045;-78
2022/06/16 06:57:41;;;;;;;5.57;3.53;;;18.20;94.30;;;;;;5011642;28;20108;-78
2022/06/16 07:00:08;;;;;;;10.02;3.83;;;18.20;94.30;;;;;;5011070;28;20483;-79
2022/06/16 07:02:33;;;;;;;5.57;2.63;;;18.20;94.60;;;;;;5009781;28;20030;-78
2022/06/16 07:04:59;;;;;;;4.70;3.30;;;18.20;94.70;;;;;;5010990;28;20091;-78
2022/06/16 07:07:25;;;;;;;5.45;3.40;;;18.20;95.00;;;;;;5010097;28;20471;-78
2022/06/16 07:09:51;;;;;;;3.95;2.85;;;18.40;95.20;;;;;;5026084;28;20022;-78
2022/06/16 07:12:17;;;;;;;4.60;2.88;;;18.50;94.60;;;;;;5010986;28;20044;-78
2022/06/16 07:14:46;;;;;;;6.53;3.33;;;18.60;94.30;;;;;;5011341;28;20033;-78
2022/06/16 07:17:13;;;;;;;3.92;2.60;;;18.80;94.70;;;;;;5010201;28;20116;-78
2022/06/16 07:19:38;;;;;;;5.13;2.92;;;19.00;94.40;;;;;;5011178;28;20030;-77
2022/06/16 07:22:04;;;;;;;9.57;3.35;;;19.10;93.90;;;;;;5010564;28;20053;-78
2022/06/16 07:24:30;;;;;;;4.50;3.10;;;19.30;93.40;;;;;;5011131;28;20050;-78
2022/06/16 07:26:56;;;;;;;6.28;2.90;;;19.50;94.00;;;;;;5010276;28;20485;-78
2022/06/16 07:29:21;;;;;;;7.40;2.33;;;19.70;92.30;;;;;;5009762;28;20114;-78
2022/06/16 07:31:47;;;;;;;5.32;2.90;;;19.90;92.00;;;;;;5010661;28;20033;-78
2022/06/16 07:34:12;;;;;;;4.57;2.35;;;20.00;92.10;;;;;;5010300;28;20034;-78
2022/06/16 07:36:38;;;;;;;4.72;2.58;;;20.20;91.60;;;;;;5010412;28;20537;-78
2022/06/16 07:39:04;;;;;;;4.35;2.63;;;20.20;90.30;;;;;;5010791;28;20022;-78
2022/06/16 07:41:36;;;;;;;2.83;2.30;;;20.20;90.00;;;;;;5010542;28;20513;-78
2022/06/16 07:44:15;;;;;;;4.47;2.30;;;20.20;89.90;;;;;;5010678;28;20029;-78
2022/06/16 07:46:42;;;;;;;4.60;2.83;;;20.20;90.10;;;;;;5010502;28;20052;-78
2022/06/16 07:49:12;;;;;;;4.60;2.63;;;20.30;90.60;;;;;;5010544;28;20079;-78
2022/06/16 07:51:38;;;;;;;9.80;2.88;;;20.40;90.00;;;;;;5010585;28;20080;-78
2022/06/16 07:54:04;;;;;;;5.60;2.42;;;20.40;89.70;;;;;;5010035;28;20108;-78
2022/06/16 07:56:29;;;;;;;7.13;2.50;;;20.50;90.30;;;;;;5010042;28;20097;-77
2022/06/16 07:58:54;;;;;;;5.60;2.30;;;20.50;89.00;;;;;;5010766;28;20121;-78
2022/06/16 08:01:20;;;;;;;6.07;2.30;;;20.50;87.40;;;;;;5010300;28;20095;-78
2022/06/16 08:03:46;;;;;;;3.88;2.25;;;20.50;88.00;;;;;;5010344;28;20037;-78
2022/06/16 08:06:16;;;;;;;3.97;1.98;;;20.50;88.00;;;;;;5024888;28;20025;-78
2022/06/16 08:08:43;;;;;;;5.80;2.20;;;20.50;86.90;;;;;;5010361;28;20033;-78
2022/06/16 08:13:56;;;;;;;3.50;2.10;;;20.50;87.20;;;;;;5010722;28;20403;-77
2022/06/16 08:16:22;;;;;;;4.32;2.30;;;20.50;86.70;;;;;;5009874;28;20535;-77
2022/06/16 08:18:48;;;;;;;7.80;2.17;;;20.70;87.00;;;;;;5014213;28;20038;-78
2022/06/16 08:21:13;;;;;;;3.92;2.20;;;20.80;88.00;;;;;;5013627;28;20057;-78
2022/06/16 08:23:39;;;;;;;9.82;2.60;;;21.10;88.20;;;;;;5014682;28;20084;-78
2022/06/16 08:26:04;;;;;;;3.83;1.95;;;21.20;85.80;;;;;;5013678;28;20060;-78
2022/06/16 08:28:32;;;;;;;7.15;2.47;;;21.20;85.20;;;;;;5014394;28;20545;-78
2022/06/16 08:30:57;;;;;;;3.80;2.33;;;21.40;86.30;;;;;;5014049;28;20391;-78
2022/06/16 08:33:23;;;;;;;7.75;2.08;;;21.50;86.30;;;;;;5012996;28;20084;-78
2022/06/16 08:35:48;;;;;;;2.85;2.13;;;21.60;83.30;;;;;;5029302;28;20497;-78
2022/06/16 08:38:14;;;;;;;3.95;2.40;;;21.60;82.30;;;;;;5015452;28;20037;-78
2022/06/16 08:40:45;;;;;;;4.97;1.90;;;21.60;82.00;;;;;;5014751;28;20034;-76
2022/06/16 08:43:32;;;;;;;6.68;2.30;;;21.40;82.70;;;;;;5014648;28;20660;-78
2022/06/16 08:46:01;;;;;;;3.05;2.22;;;21.40;83.40;;;;;;5013133;28;20046;-77
2022/06/16 08:48:58;;;;;;;6.75;2.85;;;21.30;82.60;;;;;;5013748;28;20022;-77
2022/06/16 08:51:23;;;;;;;5.82;2.00;;;21.30;84.40;;;;;;5013823;28;20149;-77
2022/06/16 08:53:57;;;;;;;6.32;1.88;;;21.30;83.00;;;;;;5013871;28;20053;-77
2022/06/16 08:56:46;;;;;;;5.25;1.95;;;21.30;84.40;;;;;;5028376;28;20026;-76
2022/06/16 08:59:20;;;;;;;2.65;1.80;;;21.40;83.90;;;;;;5013783;28;20069;-78
2022/06/16 09:02:04;;;;;;;6.43;2.05;;;21.50;82.80;;;;;;5013669;28;20034;-77
2022/06/16 09:04:31;;;;;;;3.17;1.55;;;21.50;82.60;;;;;;5013302;28;20038;-78
2022/06/16 09:07:22;;;;;;;5.10;2.03;;;21.40;83.70;;;;;;5027918;28;20029;-78
2022/06/16 09:10:23;;;;;;;4.20;2.13;;;21.50;83.20;;;;;;5013591;28;20429;-78
2022/06/16 09:13:20;;;;;;;4.97;1.90;;;21.40;83.20;;;;;;5013595;28;20111;-77
2022/06/16 09:16:03;;;;;;;4.50;2.38;;;21.40;83.20;;;;;;5012266;28;20026;-78
2022/06/16 09:18:47;;;;;;;4.15;2.20;;;21.50;83.90;;;;;;5013976;28;20033;-77
2022/06/16 09:21:38;;;;;;;6.68;2.58;;;21.50;83.10;;;;;;5012637;28;20061;-77
2022/06/16 09:24:25;;;;;;;2.95;2.10;;;21.30;82.80;;;;;;5028420;28;20030;-77
2022/06/16 09:26:55;;;;;;;3.15;2.38;;;21.20;83.60;;;;;;5011276;28;20073;-78
2022/06/16 09:29:31;;;;;;;4.82;2.28;;;21.30;84.80;;;;;;5012528;28;20053;-78
2022/06/16 09:32:04;;;;;;;7.38;2.65;;;21.30;83.50;;;;;;5013039;28;20065;-78
2022/06/16 09:35:02;;;;;;;3.45;2.35;;;21.40;83.40;;;;;;5013046;28;20053;-77
2022/06/16 09:37:37;;;;;;;5.25;1.98;;;21.60;82.70;;;;;;5012135;28;20053;-77
2022/06/16 09:40:06;;;;;;;6.65;2.22;;;21.60;82.90;;;;;;5012821;28;20037;-77
2022/06/16 09:42:41;;;;;;;5.05;2.70;;;21.60;82.40;;;;;;5027815;28;20038;-78
2022/06/16 09:45:28;;;;;;;4.78;2.72;;;21.50;82.60;;;;;;5012905;28;20513;-78
2022/06/16 09:48:07;;;;;;;4.72;2.47;;;21.40;82.50;;;;;;5012327;28;20033;-78
2022/06/16 09:50:48;;;;;;;8.73;3.30;;;21.40;82.70;;;;;;5012962;28;20557;-78
2022/06/16 09:53:16;;;;;;;8.48;2.35;;;21.50;84.50;;;;;;5012632;28;20022;-77
2022/06/16 09:56:07;;;;;;;3.40;2.50;;;21.70;83.20;;;;;;5011623;28;20038;-78
2022/06/16 09:58:50;;;;;;;8.07;2.92;;;22.00;84.40;;;;;;5011542;28;20088;-78
2022/06/16 10:01:19;;;;;;;6.72;2.15;;;22.30;80.80;;;;;;5012598;28;20052;-78
2022/06/16 10:03:53;;;;;;;6.25;2.13;;;22.50;82.10;;;;;;5012427;28;20053;-78
2022/06/16 10:06:36;;;;;;;7.70;2.75;;;22.70;81.00;;;;;;5027059;28;20116;-77
2022/06/16 10:09:10;;;;;;;;;;;22.80;78.50;;;;;;5027925;28;20049;-78
2022/06/16 10:11:54;;;;;;;5.05;1.92;;;22.90;78.70;;;;;;5012261;28;19910;-78
2022/06/16 10:14:29;;;;;;;4.53;1.77;;;23.10;81.10;;;;;;5012143;28;20494;-79
2022/06/16 10:16:59;;;;;;;2.05;1.48;;;23.40;79.90;;;;;;5011523;28;20033;-78
2022/06/16 10:19:29;;;;;;;2.97;1.10;;;23.70;75.80;;;;;;5012403;28;20029;-79
2022/06/16 10:21:56;;;;;;;4.47;1.98;;;23.90;74.90;;;;;;5011880;28;20033;-79
2022/06/16 10:24:27;;;;;;;3.28;2.05;;;23.90;75.00;;;;;;5012317;28;20041;-79
2022/06/16 10:26:57;;;;;;;5.10;1.60;;;23.90;73.50;;;;;;5011341;28;20380;-78
2022/06/16 10:29:29;;;;;;;4.72;1.90;;;23.90;74.50;;;;;;5027030;28;20033;-78
2022/06/16 10:31:58;;;;;;;4.10;1.88;;;23.80;74.60;;;;;;5011722;28;20030;-78
2022/06/16 10:34:32;;;;;;;3.40;1.48;;;23.70;75.50;;;;;;5011755;28;20092;-77
2022/06/16 10:37:18;;;;;;;6.03;1.90;;;23.70;75.20;;;;;;5011206;28;20430;-78
2022/06/16 10:39:55;;;;;;;3.53;1.63;;;23.60;74.50;;;;;;5011788;28;20437;-79
2022/06/16 10:42:32;;;;;;;7.32;2.22;;;23.80;75.30;;;;;;5011449;28;20033;-79
2022/06/16 10:45:05;;;;;;;3.83;1.95;;;23.90;74.60;;;;;;5011681;28;20510;-79
2022/06/16 10:47:38;;;;;;;3.20;1.33;;;24.20;74.70;;;;;;5011168;28;20025;-78
2022/06/16 10:50:06;;;;;;;3.17;1.85;;;24.50;75.90;;;;;;5011628;28;20506;-78
2022/06/16 10:52:49;;;;;;;5.63;1.52;;;24.80;73.60;;;;;;5010946;28;20030;-79
2022/06/16 10:55:22;;;;;;;5.97;1.30;;;25.20;71.80;;;;;;5011475;28;20545;-79
2022/06/16 10:58:01;;;;;;;2.83;1.50;;;25.40;70.80;;;;;;5011750;28;20114;-78
2022/06/16 11:00:30;;;;;;;3.83;1.65;;;25.60;70.70;;;;;;5011683;28;20034;-78
2022/06/16 11:02:58;;;;;;;4.03;1.30;;;25.80;69.70;;;;;;5026210;28;20034;-79
2022/06/16 11:05:25;;;;;;;5.78;1.42;;;25.90;67.80;;;;;;5010827;28;20026;-79
2022/06/16 11:07:51;;;;;;;4.85;1.20;;;26.00;67.10;;;;;;5010650;28;20068;-78
2022/06/16 11:10:54;;;;;;;2.83;1.13;;;26.10;67.90;;;;;;5011380;28;20086;-78
2022/06/16 11:13:29;;;;;;;2.72;1.15;;;26.30;67.80;;;;;;5011199;28;20089;-79
2022/06/16 11:15:55;;;;;;;7.75;1.63;;;26.40;67.20;;;;;;5010702;28;20638;-79
2022/06/16 11:18:23;;;;;;;7.22;1.45;;;26.50;66.80;;;;;;5011194;28;20030;-78
2022/06/16 11:20:52;;;;;;;4.05;1.58;;;26.70;65.00;;;;;;5010834;28;20038;-79
2022/06/16 11:23:29;;;;;;;4.40;1.52;;;26.80;65.10;;;;;;5011080;28;20371;-79
2022/06/16 11:25:59;;;;;;;2.70;1.25;;;26.90;64.20;;;;;;5010436;28;20022;-84
2022/06/16 11:28:26;;;;;;;3.45;1.15;;;26.80;64.90;;;;;;5024412;28;20033;-78
2022/06/16 11:30:55;;;;;;;3.58;1.23;;;26.80;64.30;;;;;;5007820;28;20045;-78
2022/06/16 11:34:06;;;;;;;8.95;1.50;;;26.80;64.50;;;;;;5026199;28;20044;-78
2022/06/16 11:36:26;;;;;;;6.75;1.30;;;26.80;64.50;;;;;;5007170;28;20057;-78
2022/06/16 11:39:06;;;;;;;5.10;1.38;;;27.00;63.90;;;;;;5008130;28;20414;-78
2022/06/16 11:41:32;;;;;;;4.80;1.35;;;27.20;63.30;;;;;;5004624;28;20117;-78
2022/06/16 11:44:02;;;;;;;4.25;1.60;;;27.40;63.10;;;;;;5017623;28;20125;-78
2022/06/16 11:46:48;;;;;;;4.00;1.35;;;27.60;63.90;;;;;;5014463;28;20487;-78
2022/06/16 11:49:39;;;;;;;4.30;1.25;;;27.70;61.50;;;;;;5010312;28;20037;-78
2022/06/16 11:52:20;;;;;;;3.10;1.10;;;27.80;61.20;;;;;;5014118;28;20070;-78
2022/06/16 11:55:26;;;;;;;2.00;0.95;;;28.00;60.80;;;;;;5006561;28;20030;-78
2022/06/16 11:57:57;;;;;;;1.65;0.90;;;28.20;61.90;;;;;;5013289;28;20032;-78
2022/06/16 12:00:31;;;;;;;4.35;1.00;;;28.40;59.80;;;;;;5013381;28;20030;-78
2022/06/16 12:03:34;;;;;;;3.67;1.75;;;28.50;59.80;;;;;;4994178;28;20034;-79
2022/06/16 12:06:32;;;;;;;5.53;1.20;;;28.60;59.30;;;;;;4990340;28;20037;-79
2022/06/16 12:09:27;;;;;;;3.40;1.20;;;28.80;59.40;;;;;;5001826;28;20034;-79
2022/06/16 12:12:09;;;;;;;3.72;1.20;;;28.80;58.60;;;;;;5004857;28;20116;-78
2022/06/16 12:14:49;;;;;;;;;;;28.90;61.80;;;;;;5007296;28;20116;-78
2022/06/16 12:17:28;;;;;;;1.40;0.98;;;29.00;57.20;;;;;;5007060;28;20326;-78
2022/06/16 12:20:13;;;;;;;4.90;1.48;;;28.80;59.20;;;;;;5003527;28;20038;-78
2022/06/16 12:22:57;;;;;;;3.13;1.35;;;28.90;60.00;;;;;;5006815;28;20030;-79
2022/06/16 12:25:47;;;;;;;4.10;1.10;;;28.90;58.80;;;;;;5004022;28;20034;-79
2022/06/16 12:28:53;;;;;;;3.08;0.90;;;28.80;58.50;;;;;;5004302;28;20029;-78
2022/06/16 12:31:26;;;;;;;5.30;1.63;;;28.80;57.50;;;;;;5002682;28;20121;-79
2022/06/16 12:34:16;;;;;;;5.05;1.50;;;28.80;56.50;;;;;;5005243;28;20026;-79
2022/06/16 12:36:47;;;;;;;7.13;1.70;;;28.80;55.80;;;;;;5013854;28;20117;-78
2022/06/16 12:39:20;;;;;;;8.45;1.50;;;28.90;56.60;;;;;;5005944;28;20034;-79
2022/06/16 12:41:49;;;;;;;3.25;1.23;;;28.90;54.40;;;;;;5016507;28;20034;-78
2022/06/16 12:44:46;;;;;;;4.78;1.17;;;29.00;55.30;;;;;;5002048;28;20040;-77
2022/06/16 12:47:19;;;;;;;10.48;1.52;;;29.10;55.70;;;;;;5005879;28;20042;-78
2022/06/16 12:49:53;;;;;;;45.67;3.83;;;29.20;55.20;;;;;;5009681;28;20110;-78
2022/06/16 12:52:24;;;;;;;4.70;1.00;;;29.20;56.00;;;;;;5009732;28;20037;-78
2022/06/16 12:55:00;;;;;;;2.43;0.90;;;29.10;53.70;;;;;;5024913;28;20375;-79
2022/06/16 12:57:35;;;;;;;2.28;1.27;;;29.10;53.80;;;;;;5006148;28;20061;-78
2022/06/16 13:00:10;;;;;;;3.20;1.40;;;29.20;54.50;;;;;;5008646;28;20043;-78
2022/06/16 13:02:43;;;;;;;1.05;0.75;;;29.10;54.60;;;;;;5009816;28;20030;-78
2022/06/16 13:05:09;;;;;;;8.38;1.48;;;29.10;52.70;;;;;;5012807;28;20121;-78
2022/06/16 13:07:37;;;;;;;1.25;0.95;;;28.90;53.40;;;;;;5012183;28;20374;-78
2022/06/16 13:10:07;;;;;;;1.17;0.90;;;28.80;53.00;;;;;;5010718;28;20133;-78
2022/06/16 13:12:38;;;;;;;1.60;0.60;;;28.90;53.70;;;;;;5007237;28;20038;-78
2022/06/16 13:15:13;;;;;;;4.18;0.80;;;28.90;54.50;;;;;;5010762;28;20033;-78
2022/06/16 13:17:47;;;;;;;3.95;0.80;;;28.90;54.80;;;;;;5003050;28;20036;-78
2022/06/16 13:20:16;;;;;;;4.35;1.05;;;28.80;52.90;;;;;;5012398;28;20030;-78
2022/06/16 13:22:43;;;;;;;2.35;0.77;;;28.80;52.90;;;;;;5012999;28;20493;-77
2022/06/16 13:25:29;;;;;;;2.67;1.08;;;28.60;53.90;;;;;;5005532;28;20395;-78
2022/06/16 13:27:56;;;;;;;2.17;0.80;;;28.60;53.90;;;;;;5006539;28;20487;-79
2022/06/16 13:30:30;;;;;;;3.80;0.88;;;28.60;53.80;;;;;;5008784;28;20034;-78
2022/06/16 13:33:08;;;;;;;1.77;0.85;;;28.70;52.90;;;;;;5015986;28;20117;-79
2022/06/16 13:35:39;;;;;;;1.83;0.60;;;28.70;51.40;;;;;;5004927;28;20118;-79